TIST/STT METAR and TAF weather

Enter ICAO airport designator
Station Type Date Time Source
TIST METAR 2021/09/24 03:53 UTC NOAA

TIST 240353Z 15005KT 10SM CLR 28/23 A2994 RMK AO2 SLP139 T02830228 403060278


Station Type Date Time Source
TIST Decoded METAR 2021/09/24 03:53 UTC NOAA

Charlotte Amalie St. Thomas, Cyril E. King Airport, Virgin Islands (TIST) 18-20N 064-59W
Sep 23, 2021 - 11:53 PM EDT / 2021.09.24 0353 UTC
Wind: from the SSE (150 degrees) at 6 MPH (5 KT):0
Visibility: 10 mile(s):0
Sky conditions: clear
Temperature: 82.9 F (28.3 C)
Dew Point: 73.0 F (22.8 C)
Relative Humidity: 72%
Pressure (altimeter): 29.94 in. Hg (1013 hPa)
ob: TIST 240353Z 15005KT 10SM CLR 28/23 A2994 RMK AO2 SLP139 T02830228 403060278
cycle: 4

Station Type Date Time Source
TIST TAF 2021/09/23 18:48 UTC NOAA

TAF TIST 231740Z 2318/2418 18010KT P6SM FEW040 SCT100
FM232330 13004KT P6SM FEW026
FM241300 16010KT P6SM FEW030

Example: see airport list